sensor_id;sensor_type;location;lat;lon;timestamp;P1;durP1;ratioP1;P2;durP2;ratioP2
24663;SDS011;12791;50.992;13.788;2023-04-24T00:02:01;5.78;;;5.15;;
24663;SDS011;12791;50.992;13.788;2023-04-24T00:04:29;4.85;;;4.45;;
24663;SDS011;12791;50.992;13.788;2023-04-24T00:06:56;5.50;;;5.03;;
24663;SDS011;12791;50.992;13.788;2023-04-24T00:09:24;6.43;;;4.32;;
24663;SDS011;12791;50.992;13.788;2023-04-24T00:11:51;4.68;;;4.20;;
24663;SDS011;12791;50.992;13.788;2023-04-24T00:14:18;4.65;;;4.22;;
24663;SDS011;12791;50.992;13.788;2023-04-24T00:16:45;4.22;;;3.83;;
24663;SDS011;12791;50.992;13.788;2023-04-24T00:19:11;4.40;;;3.88;;
24663;SDS011;12791;50.992;13.788;2023-04-24T00:21:40;4.63;;;3.88;;
24663;SDS011;12791;50.992;13.788;2023-04-24T00:24:06;4.22;;;3.88;;
24663;SDS011;12791;50.992;13.788;2023-04-24T00:26:34;4.43;;;4.03;;
24663;SDS011;12791;50.992;13.788;2023-04-24T00:29:01;4.00;;;3.70;;
24663;SDS011;12791;50.992;13.788;2023-04-24T00:31:27;4.32;;;3.50;;
24663;SDS011;12791;50.992;13.788;2023-04-24T00:33:54;4.53;;;3.78;;
24663;SDS011;12791;50.992;13.788;2023-04-24T00:36:20;3.90;;;3.60;;
24663;SDS011;12791;50.992;13.788;2023-04-24T00:38:48;4.30;;;3.97;;
24663;SDS011;12791;50.992;13.788;2023-04-24T00:41:15;3.97;;;3.63;;
24663;SDS011;12791;50.992;13.788;2023-04-24T00:43:41;4.45;;;4.07;;
24663;SDS011;12791;50.992;13.788;2023-04-24T00:46:08;5.07;;;4.60;;
24663;SDS011;12791;50.992;13.788;2023-04-24T00:48:35;5.88;;;4.75;;
24663;SDS011;12791;50.992;13.788;2023-04-24T00:51:04;4.18;;;3.83;;
24663;SDS011;12791;50.992;13.788;2023-04-24T00:53:31;5.18;;;4.63;;
24663;SDS011;12791;50.992;13.788;2023-04-24T00:55:59;5.63;;;4.38;;
24663;SDS011;12791;50.992;13.788;2023-04-24T00:58:26;5.95;;;4.05;;
24663;SDS011;12791;50.992;13.788;2023-04-24T01:00:53;6.65;;;4.60;;
24663;SDS011;12791;50.992;13.788;2023-04-24T01:03:22;4.72;;;4.32;;
24663;SDS011;12791;50.992;13.788;2023-04-24T01:05:52;4.57;;;4.18;;
24663;SDS011;12791;50.992;13.788;2023-04-24T01:08:20;4.63;;;4.13;;
24663;SDS011;12791;50.992;13.788;2023-04-24T01:10:49;4.95;;;4.50;;
24663;SDS011;12791;50.992;13.788;2023-04-24T01:13:19;4.70;;;4.32;;
24663;SDS011;12791;50.992;13.788;2023-04-24T01:15:46;4.25;;;3.95;;
24663;SDS011;12791;50.992;13.788;2023-04-24T01:18:13;5.60;;;4.80;;
24663;SDS011;12791;50.992;13.788;2023-04-24T01:20:40;5.97;;;5.18;;
24663;SDS011;12791;50.992;13.788;2023-04-24T01:23:10;4.35;;;3.95;;
24663;SDS011;12791;50.992;13.788;2023-04-24T01:25:37;4.75;;;4.25;;
24663;SDS011;12791;50.992;13.788;2023-04-24T01:28:04;5.70;;;4.50;;
24663;SDS011;12791;50.992;13.788;2023-04-24T01:30:31;3.97;;;3.65;;
24663;SDS011;12791;50.992;13.788;2023-04-24T01:32:57;4.22;;;3.90;;
24663;SDS011;12791;50.992;13.788;2023-04-24T01:35:25;4.20;;;3.83;;
24663;SDS011;12791;50.992;13.788;2023-04-24T01:37:52;4.63;;;4.22;;
24663;SDS011;12791;50.992;13.788;2023-04-24T01:40:19;4.00;;;3.65;;
24663;SDS011;12791;50.992;13.788;2023-04-24T01:42:46;4.53;;;4.05;;
24663;SDS011;12791;50.992;13.788;2023-04-24T01:45:13;3.92;;;3.63;;
24663;SDS011;12791;50.992;13.788;2023-04-24T01:47:40;4.65;;;4.32;;
24663;SDS011;12791;50.992;13.788;2023-04-24T01:50:07;4.53;;;4.13;;
24663;SDS011;12791;50.992;13.788;2023-04-24T01:52:34;4.93;;;4.00;;
24663;SDS011;12791;50.992;13.788;2023-04-24T01:55:01;4.80;;;4.40;;
24663;SDS011;12791;50.992;13.788;2023-04-24T01:57:30;4.68;;;4.28;;
24663;SDS011;12791;50.992;13.788;2023-04-24T01:59:57;5.03;;;4.60;;
24663;SDS011;12791;50.992;13.788;2023-04-24T02:02:24;5.00;;;4.60;;
24663;SDS011;12791;50.992;13.788;2023-04-24T02:04:52;16.60;;;4.88;;
24663;SDS011;12791;50.992;13.788;2023-04-24T02:07:19;5.03;;;4.63;;
24663;SDS011;12791;50.992;13.788;2023-04-24T02:09:45;4.75;;;4.30;;
24663;SDS011;12791;50.992;13.788;2023-04-24T02:12:12;4.07;;;3.67;;
24663;SDS011;12791;50.992;13.788;2023-04-24T02:14:40;4.38;;;3.97;;
24663;SDS011;12791;50.992;13.788;2023-04-24T02:17:07;4.32;;;3.92;;
24663;SDS011;12791;50.992;13.788;2023-04-24T02:19:34;5.18;;;4.22;;
24663;SDS011;12791;50.992;13.788;2023-04-24T02:22:00;4.70;;;4.30;;
24663;SDS011;12791;50.992;13.788;2023-04-24T02:24:27;4.22;;;3.88;;
24663;SDS011;12791;50.992;13.788;2023-04-24T02:26:53;4.40;;;4.00;;
24663;SDS011;12791;50.992;13.788;2023-04-24T02:29:20;4.32;;;3.92;;
24663;SDS011;12791;50.992;13.788;2023-04-24T02:31:49;4.68;;;4.28;;
24663;SDS011;12791;50.992;13.788;2023-04-24T02:34:15;4.00;;;3.70;;
24663;SDS011;12791;50.992;13.788;2023-04-24T02:36:42;3.92;;;3.72;;
24663;SDS011;12791;50.992;13.788;2023-04-24T02:39:08;4.43;;;3.90;;
24663;SDS011;12791;50.992;13.788;2023-04-24T02:41:35;6.07;;;4.75;;
24663;SDS011;12791;50.992;13.788;2023-04-24T02:44:02;5.20;;;4.60;;
24663;SDS011;12791;50.992;13.788;2023-04-24T02:46:28;5.85;;;4.63;;
24663;SDS011;12791;50.992;13.788;2023-04-24T02:48:56;6.28;;;4.93;;
24663;SDS011;12791;50.992;13.788;2023-04-24T02:51:23;5.30;;;4.80;;
24663;SDS011;12791;50.992;13.788;2023-04-24T02:53:50;7.55;;;5.30;;
24663;SDS011;12791;50.992;13.788;2023-04-24T02:56:16;5.03;;;4.63;;
24663;SDS011;12791;50.992;13.788;2023-04-24T02:58:43;5.28;;;4.78;;
24663;SDS011;12791;50.992;13.788;2023-04-24T03:01:09;4.38;;;4.07;;
24663;SDS011;12791;50.992;13.788;2023-04-24T03:03:36;4.22;;;3.92;;
24663;SDS011;12791;50.992;13.788;2023-04-24T03:06:05;4.30;;;4.00;;
24663;SDS011;12791;50.992;13.788;2023-04-24T03:08:32;5.60;;;4.32;;
24663;SDS011;12791;50.992;13.788;2023-04-24T03:10:59;5.10;;;4.60;;
24663;SDS011;12791;50.992;13.788;2023-04-24T03:13:26;5.50;;;5.07;;
24663;SDS011;12791;50.992;13.788;2023-04-24T03:15:53;5.25;;;4.80;;
24663;SDS011;12791;50.992;13.788;2023-04-24T03:18:19;5.43;;;4.93;;
24663;SDS011;12791;50.992;13.788;2023-04-24T03:20:46;4.70;;;4.40;;
24663;SDS011;12791;50.992;13.788;2023-04-24T03:23:14;5.00;;;4.60;;
24663;SDS011;12791;50.992;13.788;2023-04-24T03:25:41;5.90;;;5.40;;
24663;SDS011;12791;50.992;13.788;2023-04-24T03:28:08;5.20;;;4.70;;
24663;SDS011;12791;50.992;13.788;2023-04-24T03:30:35;5.35;;;4.68;;
24663;SDS011;12791;50.992;13.788;2023-04-24T03:33:01;4.22;;;3.83;;
24663;SDS011;12791;50.992;13.788;2023-04-24T03:35:28;5.00;;;4.50;;
24663;SDS011;12791;50.992;13.788;2023-04-24T03:37:55;4.13;;;3.83;;
24663;SDS011;12791;50.992;13.788;2023-04-24T03:40:23;4.70;;;4.30;;
24663;SDS011;12791;50.992;13.788;2023-04-24T03:42:49;4.95;;;4.43;;
24663;SDS011;12791;50.992;13.788;2023-04-24T03:45:16;4.78;;;4.28;;
24663;SDS011;12791;50.992;13.788;2023-04-24T03:47:42;4.85;;;4.47;;
24663;SDS011;12791;50.992;13.788;2023-04-24T03:50:09;4.15;;;3.83;;
24663;SDS011;12791;50.992;13.788;2023-04-24T03:52:36;4.88;;;4.47;;
24663;SDS011;12791;50.992;13.788;2023-04-24T03:55:02;4.60;;;3.83;;
24663;SDS011;12791;50.992;13.788;2023-04-24T03:57:31;4.20;;;3.80;;
24663;SDS011;12791;50.992;13.788;2023-04-24T03:59:57;4.45;;;4.15;;
24663;SDS011;12791;50.992;13.788;2023-04-24T04:02:24;4.40;;;3.90;;
24663;SDS011;12791;50.992;13.788;2023-04-24T04:04:51;3.70;;;3.35;;
24663;SDS011;12791;50.992;13.788;2023-04-24T04:07:18;3.25;;;3.05;;
24663;SDS011;12791;50.992;13.788;2023-04-24T04:09:44;3.42;;;3.13;;
24663;SDS011;12791;50.992;13.788;2023-04-24T04:12:11;3.42;;;3.13;;
24663;SDS011;12791;50.992;13.788;2023-04-24T04:14:39;2.53;;;2.33;;
24663;SDS011;12791;50.992;13.788;2023-04-24T04:17:05;2.28;;;1.70;;
24663;SDS011;12791;50.992;13.788;2023-04-24T04:19:32;1.30;;;1.20;;
24663;SDS011;12791;50.992;13.788;2023-04-24T04:21:58;1.45;;;1.40;;
24663;SDS011;12791;50.992;13.788;2023-04-24T04:24:25;2.65;;;1.17;;
24663;SDS011;12791;50.992;13.788;2023-04-24T04:26:52;1.15;;;0.90;;
24663;SDS011;12791;50.992;13.788;2023-04-24T04:29:21;1.05;;;0.90;;
24663;SDS011;12791;50.992;13.788;2023-04-24T04:31:50;1.95;;;0.93;;
24663;SDS011;12791;50.992;13.788;2023-04-24T04:34:17;1.10;;;1.00;;
24663;SDS011;12791;50.992;13.788;2023-04-24T04:36:44;0.80;;;0.80;;
24663;SDS011;12791;50.992;13.788;2023-04-24T04:39:11;0.70;;;0.70;;
24663;SDS011;12791;50.992;13.788;2023-04-24T04:41:39;1.88;;;0.77;;
24663;SDS011;12791;50.992;13.788;2023-04-24T04:44:06;0.75;;;0.75;;
24663;SDS011;12791;50.992;13.788;2023-04-24T04:46:33;2.67;;;0.93;;
24663;SDS011;12791;50.992;13.788;2023-04-24T04:49:03;0.70;;;0.70;;
24663;SDS011;12791;50.992;13.788;2023-04-24T04:51:30;1.63;;;0.80;;
24663;SDS011;12791;50.992;13.788;2023-04-24T04:53:56;0.70;;;0.70;;
24663;SDS011;12791;50.992;13.788;2023-04-24T04:56:23;0.82;;;0.82;;
24663;SDS011;12791;50.992;13.788;2023-04-24T04:58:50;3.10;;;0.77;;
24663;SDS011;12791;50.992;13.788;2023-04-24T05:01:17;1.20;;;0.65;;
24663;SDS011;12791;50.992;13.788;2023-04-24T05:03:44;0.95;;;0.70;;
24663;SDS011;12791;50.992;13.788;2023-04-24T05:06:12;2.85;;;0.90;;
24663;SDS011;12791;50.992;13.788;2023-04-24T05:08:39;0.70;;;0.70;;
24663;SDS011;12791;50.992;13.788;2023-04-24T05:11:05;0.85;;;0.75;;
24663;SDS011;12791;50.992;13.788;2023-04-24T05:13:32;0.82;;;0.80;;
24663;SDS011;12791;50.992;13.788;2023-04-24T05:15:59;1.23;;;1.02;;
24663;SDS011;12791;50.992;13.788;2023-04-24T05:18:26;3.17;;;1.40;;
24663;SDS011;12791;50.992;13.788;2023-04-24T05:20:52;2.83;;;1.23;;
24663;SDS011;12791;50.992;13.788;2023-04-24T05:23:20;2.03;;;1.05;;
24663;SDS011;12791;50.992;13.788;2023-04-24T05:25:47;1.08;;;0.98;;
24663;SDS011;12791;50.992;13.788;2023-04-24T05:28:13;2.15;;;0.88;;
24663;SDS011;12791;50.992;13.788;2023-04-24T05:30:40;2.35;;;0.90;;
24663;SDS011;12791;50.992;13.788;2023-04-24T05:33:06;1.15;;;0.80;;
24663;SDS011;12791;50.992;13.788;2023-04-24T05:35:34;2.25;;;1.05;;
24663;SDS011;12791;50.992;13.788;2023-04-24T05:38:01;1.98;;;1.00;;
24663;SDS011;12791;50.992;13.788;2023-04-24T05:40:29;0.68;;;0.68;;
24663;SDS011;12791;50.992;13.788;2023-04-24T05:42:56;0.60;;;0.60;;
24663;SDS011;12791;50.992;13.788;2023-04-24T05:45:22;0.57;;;0.57;;
24663;SDS011;12791;50.992;13.788;2023-04-24T05:47:49;1.30;;;0.70;;
24663;SDS011;12791;50.992;13.788;2023-04-24T05:50:17;1.58;;;0.50;;
24663;SDS011;12791;50.992;13.788;2023-04-24T05:52:43;0.50;;;0.50;;
24663;SDS011;12791;50.992;13.788;2023-04-24T05:55:10;1.17;;;0.50;;
24663;SDS011;12791;50.992;13.788;2023-04-24T05:57:38;0.60;;;0.60;;
24663;SDS011;12791;50.992;13.788;2023-04-24T06:00:05;0.73;;;0.70;;
24663;SDS011;12791;50.992;13.788;2023-04-24T06:02:33;2.53;;;0.68;;
24663;SDS011;12791;50.992;13.788;2023-04-24T06:05:00;2.25;;;1.33;;
24663;SDS011;12791;50.992;13.788;2023-04-24T06:07:26;1.83;;;1.73;;
24663;SDS011;12791;50.992;13.788;2023-04-24T06:09:53;2.97;;;2.65;;
24663;SDS011;12791;50.992;13.788;2023-04-24T06:12:20;2.58;;;2.38;;
24663;SDS011;12791;50.992;13.788;2023-04-24T06:14:48;2.17;;;1.42;;
24663;SDS011;12791;50.992;13.788;2023-04-24T06:17:15;0.98;;;0.80;;
24663;SDS011;12791;50.992;13.788;2023-04-24T06:19:41;0.85;;;0.50;;
24663;SDS011;12791;50.992;13.788;2023-04-24T06:22:08;0.98;;;0.45;;
24663;SDS011;12791;50.992;13.788;2023-04-24T06:24:35;2.10;;;0.40;;
24663;SDS011;12791;50.992;13.788;2023-04-24T06:27:02;0.40;;;0.40;;
24663;SDS011;12791;50.992;13.788;2023-04-24T06:29:28;1.17;;;0.35;;
24663;SDS011;12791;50.992;13.788;2023-04-24T06:31:56;0.40;;;0.32;;
24663;SDS011;12791;50.992;13.788;2023-04-24T06:34:23;0.50;;;0.50;;
24663;SDS011;12791;50.992;13.788;2023-04-24T06:36:49;0.52;;;0.30;;
24663;SDS011;12791;50.992;13.788;2023-04-24T06:39:16;0.63;;;0.30;;
24663;SDS011;12791;50.992;13.788;2023-04-24T06:41:43;0.35;;;0.35;;
24663;SDS011;12791;50.992;13.788;2023-04-24T06:44:09;0.52;;;0.30;;
24663;SDS011;12791;50.992;13.788;2023-04-24T06:46:36;0.75;;;0.30;;
24663;SDS011;12791;50.992;13.788;2023-04-24T06:49:04;0.60;;;0.50;;
24663;SDS011;12791;50.992;13.788;2023-04-24T06:51:30;0.45;;;0.30;;
24663;SDS011;12791;50.992;13.788;2023-04-24T06:53:57;0.55;;;0.30;;
24663;SDS011;12791;50.992;13.788;2023-04-24T06:56:25;0.30;;;0.30;;
24663;SDS011;12791;50.992;13.788;2023-04-24T06:58:53;1.67;;;0.50;;
24663;SDS011;12791;50.992;13.788;2023-04-24T07:01:20;0.30;;;0.30;;
24663;SDS011;12791;50.992;13.788;2023-04-24T07:03:46;1.27;;;0.40;;
24663;SDS011;12791;50.992;13.788;2023-04-24T07:06:14;0.63;;;0.35;;
24663;SDS011;12791;50.992;13.788;2023-04-24T07:08:42;0.28;;;0.28;;
24663;SDS011;12791;50.992;13.788;2023-04-24T07:11:09;0.38;;;0.25;;
24663;SDS011;12791;50.992;13.788;2023-04-24T07:13:35;1.95;;;0.30;;
24663;SDS011;12791;50.992;13.788;2023-04-24T07:16:06;0.52;;;0.30;;
24663;SDS011;12791;50.992;13.788;2023-04-24T07:18:33;0.45;;;0.30;;
24663;SDS011;12791;50.992;13.788;2023-04-24T07:21:00;0.75;;;0.32;;
24663;SDS011;12791;50.992;13.788;2023-04-24T07:23:28;0.30;;;0.30;;
24663;SDS011;12791;50.992;13.788;2023-04-24T07:25:55;1.38;;;0.30;;
24663;SDS011;12791;50.992;13.788;2023-04-24T07:28:22;1.95;;;0.30;;
24663;SDS011;12791;50.992;13.788;2023-04-24T07:30:49;1.15;;;0.60;;
24663;SDS011;12791;50.992;13.788;2023-04-24T07:33:18;0.47;;;0.30;;
24663;SDS011;12791;50.992;13.788;2023-04-24T07:35:45;0.55;;;0.30;;
24663;SDS011;12791;50.992;13.788;2023-04-24T07:38:12;0.47;;;0.30;;
24663;SDS011;12791;50.992;13.788;2023-04-24T07:40:39;0.60;;;0.30;;
24663;SDS011;12791;50.992;13.788;2023-04-24T07:43:06;0.55;;;0.40;;
24663;SDS011;12791;50.992;13.788;2023-04-24T07:45:33;0.98;;;0.40;;
24663;SDS011;12791;50.992;13.788;2023-04-24T07:48:02;0.50;;;0.40;;
24663;SDS011;12791;50.992;13.788;2023-04-24T07:50:28;0.88;;;0.60;;
24663;SDS011;12791;50.992;13.788;2023-04-24T07:52:55;1.10;;;0.38;;
24663;SDS011;12791;50.992;13.788;2023-04-24T07:55:22;0.40;;;0.30;;
24663;SDS011;12791;50.992;13.788;2023-04-24T07:57:50;0.30;;;0.30;;
24663;SDS011;12791;50.992;13.788;2023-04-24T08:00:17;0.60;;;0.28;;
24663;SDS011;12791;50.992;13.788;2023-04-24T08:02:44;0.47;;;0.20;;
24663;SDS011;12791;50.992;13.788;2023-04-24T08:05:11;1.30;;;0.30;;
24663;SDS011;12791;50.992;13.788;2023-04-24T08:07:38;0.63;;;0.30;;
24663;SDS011;12791;50.992;13.788;2023-04-24T08:10:05;0.30;;;0.30;;
24663;SDS011;12791;50.992;13.788;2023-04-24T08:12:32;0.90;;;0.30;;
24663;SDS011;12791;50.992;13.788;2023-04-24T08:15:00;0.98;;;0.40;;
24663;SDS011;12791;50.992;13.788;2023-04-24T08:17:27;0.40;;;0.22;;
24663;SDS011;12791;50.992;13.788;2023-04-24T08:19:53;0.52;;;0.30;;
24663;SDS011;12791;50.992;13.788;2023-04-24T08:22:26;0.20;;;0.20;;
24663;SDS011;12791;50.992;13.788;2023-04-24T08:24:52;0.20;;;0.20;;
24663;SDS011;12791;50.992;13.788;2023-04-24T08:27:19;0.98;;;0.35;;
24663;SDS011;12791;50.992;13.788;2023-04-24T08:29:46;0.40;;;0.20;;
24663;SDS011;12791;50.992;13.788;2023-04-24T08:32:14;0.20;;;0.20;;
24663;SDS011;12791;50.992;13.788;2023-04-24T08:34:40;0.38;;;0.28;;
24663;SDS011;12791;50.992;13.788;2023-04-24T08:37:07;0.70;;;0.32;;
24663;SDS011;12791;50.992;13.788;2023-04-24T08:39:33;1.20;;;0.30;;
24663;SDS011;12791;50.992;13.788;2023-04-24T08:42:00;0.60;;;0.30;;
24663;SDS011;12791;50.992;13.788;2023-04-24T08:44:32;0.27;;;0.27;;
24663;SDS011;12791;50.992;13.788;2023-04-24T08:47:00;0.55;;;0.30;;
24663;SDS011;12791;50.992;13.788;2023-04-24T08:49:29;0.57;;;0.20;;
24663;SDS011;12791;50.992;13.788;2023-04-24T08:51:56;1.35;;;0.20;;
24663;SDS011;12791;50.992;13.788;2023-04-24T08:54:24;0.40;;;0.30;;
24663;SDS011;12791;50.992;13.788;2023-04-24T08:56:51;0.65;;;0.30;;
24663;SDS011;12791;50.992;13.788;2023-04-24T08:59:25;1.00;;;0.20;;
24663;SDS011;12791;50.992;13.788;2023-04-24T09:01:52;0.43;;;0.30;;
24663;SDS011;12791;50.992;13.788;2023-04-24T09:04:20;0.20;;;0.20;;
24663;SDS011;12791;50.992;13.788;2023-04-24T09:06:50;0.30;;;0.20;;
24663;SDS011;12791;50.992;13.788;2023-04-24T09:09:18;0.55;;;0.20;;
24663;SDS011;12791;50.992;13.788;2023-04-24T09:11:44;0.63;;;0.30;;
24663;SDS011;12791;50.992;13.788;2023-04-24T09:14:11;0.20;;;0.20;;
24663;SDS011;12791;50.992;13.788;2023-04-24T09:16:39;1.55;;;0.20;;
24663;SDS011;12791;50.992;13.788;2023-04-24T09:19:05;0.20;;;0.20;;
24663;SDS011;12791;50.992;13.788;2023-04-24T09:21:32;0.82;;;0.20;;
24663;SDS011;12791;50.992;13.788;2023-04-24T09:24:02;0.20;;;0.20;;
24663;SDS011;12791;50.992;13.788;2023-04-24T09:26:30;0.22;;;0.20;;
24663;SDS011;12791;50.992;13.788;2023-04-24T09:29:00;0.30;;;0.25;;
24663;SDS011;12791;50.992;13.788;2023-04-24T09:31:27;0.47;;;0.30;;
24663;SDS011;12791;50.992;13.788;2023-04-24T09:33:55;0.95;;;0.40;;
24663;SDS011;12791;50.992;13.788;2023-04-24T09:36:29;0.30;;;0.30;;
24663;SDS011;12791;50.992;13.788;2023-04-24T09:38:58;0.50;;;0.25;;
24663;SDS011;12791;50.992;13.788;2023-04-24T09:41:27;0.85;;;0.30;;
24663;SDS011;12791;50.992;13.788;2023-04-24T09:43:55;0.50;;;0.30;;
24663;SDS011;12791;50.992;13.788;2023-04-24T09:46:28;0.90;;;0.32;;
24663;SDS011;12791;50.992;13.788;2023-04-24T09:48:56;0.90;;;0.20;;
24663;SDS011;12791;50.992;13.788;2023-04-24T09:51:32;0.30;;;0.20;;
24663;SDS011;12791;50.992;13.788;2023-04-24T09:54:02;0.45;;;0.20;;
24663;SDS011;12791;50.992;13.788;2023-04-24T09:56:32;0.70;;;0.38;;
24663;SDS011;12791;50.992;13.788;2023-04-24T09:59:03;0.47;;;0.30;;
24663;SDS011;12791;50.992;13.788;2023-04-24T10:01:30;0.20;;;0.20;;
24663;SDS011;12791;50.992;13.788;2023-04-24T10:03:57;0.30;;;0.30;;
24663;SDS011;12791;50.992;13.788;2023-04-24T10:06:29;0.85;;;0.20;;
24663;SDS011;12791;50.992;13.788;2023-04-24T10:09:00;0.65;;;0.20;;
24663;SDS011;12791;50.992;13.788;2023-04-24T10:11:29;0.65;;;0.15;;
24663;SDS011;12791;50.992;13.788;2023-04-24T10:13:56;0.20;;;0.20;;
24663;SDS011;12791;50.992;13.788;2023-04-24T10:16:25;0.20;;;0.20;;
24663;SDS011;12791;50.992;13.788;2023-04-24T10:18:53;0.55;;;0.20;;
24663;SDS011;12791;50.992;13.788;2023-04-24T10:21:21;0.88;;;0.28;;
24663;SDS011;12791;50.992;13.788;2023-04-24T10:23:48;0.20;;;0.20;;
24663;SDS011;12791;50.992;13.788;2023-04-24T10:26:17;0.20;;;0.20;;
24663;SDS011;12791;50.992;13.788;2023-04-24T10:28:45;1.35;;;0.20;;
24663;SDS011;12791;50.992;13.788;2023-04-24T10:31:12;0.65;;;0.20;;
24663;SDS011;12791;50.992;13.788;2023-04-24T10:33:39;1.33;;;0.20;;
24663;SDS011;12791;50.992;13.788;2023-04-24T10:36:07;0.20;;;0.20;;
24663;SDS011;12791;50.992;13.788;2023-04-24T10:38:35;0.45;;;0.20;;
24663;SDS011;12791;50.992;13.788;2023-04-24T10:41:08;0.30;;;0.20;;
24663;SDS011;12791;50.992;13.788;2023-04-24T10:43:42;0.20;;;0.20;;
24663;SDS011;12791;50.992;13.788;2023-04-24T10:46:08;0.20;;;0.20;;
24663;SDS011;12791;50.992;13.788;2023-04-24T10:48:36;0.45;;;0.20;;
24663;SDS011;12791;50.992;13.788;2023-04-24T10:51:10;0.20;;;0.20;;
24663;SDS011;12791;50.992;13.788;2023-04-24T10:53:37;0.40;;;0.20;;
24663;SDS011;12791;50.992;13.788;2023-04-24T10:56:05;0.20;;;0.20;;
24663;SDS011;12791;50.992;13.788;2023-04-24T10:58:36;0.20;;;0.10;;
24663;SDS011;12791;50.992;13.788;2023-04-24T11:01:06;0.55;;;0.20;;
24663;SDS011;12791;50.992;13.788;2023-04-24T11:03:34;0.63;;;0.20;;
24663;SDS011;12791;50.992;13.788;2023-04-24T11:06:01;0.20;;;0.20;;
24663;SDS011;12791;50.992;13.788;2023-04-24T11:08:30;1.17;;;0.20;;
24663;SDS011;12791;50.992;13.788;2023-04-24T11:10:59;0.17;;;0.10;;
24663;SDS011;12791;50.992;13.788;2023-04-24T11:16:31;0.20;;;0.20;;
24663;SDS011;12791;50.992;13.788;2023-04-24T11:19:03;0.65;;;0.20;;
24663;SDS011;12791;50.992;13.788;2023-04-24T11:21:31;0.40;;;0.17;;
24663;SDS011;12791;50.992;13.788;2023-04-24T11:26:56;1.15;;;0.30;;
24663;SDS011;12791;50.992;13.788;2023-04-24T11:29:37;0.98;;;0.47;;
24663;SDS011;12791;50.992;13.788;2023-04-24T11:32:17;1.08;;;0.20;;
24663;SDS011;12791;50.992;13.788;2023-04-24T11:34:45;1.13;;;0.30;;
24663;SDS011;12791;50.992;13.788;2023-04-24T11:37:13;0.47;;;0.30;;
24663;SDS011;12791;50.992;13.788;2023-04-24T11:39:40;0.43;;;0.20;;
24663;SDS011;12791;50.992;13.788;2023-04-24T11:42:06;0.30;;;0.20;;
24663;SDS011;12791;50.992;13.788;2023-04-24T11:44:33;0.20;;;0.20;;
24663;SDS011;12791;50.992;13.788;2023-04-24T11:47:02;0.32;;;0.30;;
24663;SDS011;12791;50.992;13.788;2023-04-24T11:49:30;0.20;;;0.20;;
24663;SDS011;12791;50.992;13.788;2023-04-24T11:51:56;1.10;;;0.40;;
24663;SDS011;12791;50.992;13.788;2023-04-24T11:54:23;0.32;;;0.20;;
24663;SDS011;12791;50.992;13.788;2023-04-24T11:56:50;0.55;;;0.30;;
24663;SDS011;12791;50.992;13.788;2023-04-24T11:59:16;0.20;;;0.20;;
24663;SDS011;12791;50.992;13.788;2023-04-24T12:01:43;0.32;;;0.20;;
24663;SDS011;12791;50.992;13.788;2023-04-24T12:04:10;0.80;;;0.30;;
24663;SDS011;12791;50.992;13.788;2023-04-24T12:06:38;0.45;;;0.20;;
24663;SDS011;12791;50.992;13.788;2023-04-24T12:09:05;0.20;;;0.20;;
24663;SDS011;12791;50.992;13.788;2023-04-24T12:11:33;0.20;;;0.20;;
24663;SDS011;12791;50.992;13.788;2023-04-24T12:14:09;0.20;;;0.20;;
24663;SDS011;12791;50.992;13.788;2023-04-24T12:16:36;0.55;;;0.20;;
24663;SDS011;12791;50.992;13.788;2023-04-24T12:19:02;0.20;;;0.20;;
24663;SDS011;12791;50.992;13.788;2023-04-24T12:21:30;2.13;;;0.20;;
24663;SDS011;12791;50.992;13.788;2023-04-24T12:23:58;0.70;;;0.40;;
24663;SDS011;12791;50.992;13.788;2023-04-24T12:26:26;1.30;;;0.30;;
24663;SDS011;12791;50.992;13.788;2023-04-24T12:28:54;0.30;;;0.30;;
24663;SDS011;12791;50.992;13.788;2023-04-24T12:31:20;0.25;;;0.22;;
24663;SDS011;12791;50.992;13.788;2023-04-24T12:33:48;3.80;;;0.40;;
24663;SDS011;12791;50.992;13.788;2023-04-24T12:36:15;0.60;;;0.30;;
24663;SDS011;12791;50.992;13.788;2023-04-24T12:38:43;0.82;;;0.20;;
24663;SDS011;12791;50.992;13.788;2023-04-24T12:41:13;0.88;;;0.50;;
24663;SDS011;12791;50.992;13.788;2023-04-24T12:43:50;0.93;;;0.50;;
24663;SDS011;12791;50.992;13.788;2023-04-24T12:46:17;1.63;;;0.70;;
24663;SDS011;12791;50.992;13.788;2023-04-24T12:48:44;1.85;;;0.40;;
24663;SDS011;12791;50.992;13.788;2023-04-24T12:51:11;1.08;;;0.30;;
24663;SDS011;12791;50.992;13.788;2023-04-24T12:53:37;1.10;;;0.30;;
24663;SDS011;12791;50.992;13.788;2023-04-24T12:56:04;1.45;;;0.35;;
24663;SDS011;12791;50.992;13.788;2023-04-24T12:58:32;0.77;;;0.30;;
24663;SDS011;12791;50.992;13.788;2023-04-24T13:00:58;0.63;;;0.63;;
24663;SDS011;12791;50.992;13.788;2023-04-24T13:03:25;2.60;;;0.40;;
24663;SDS011;12791;50.992;13.788;2023-04-24T13:05:52;0.50;;;0.38;;
24663;SDS011;12791;50.992;13.788;2023-04-24T13:08:19;0.65;;;0.30;;
24663;SDS011;12791;50.992;13.788;2023-04-24T13:10:45;0.50;;;0.38;;
24663;SDS011;12791;50.992;13.788;2023-04-24T13:13:12;0.73;;;0.20;;
24663;SDS011;12791;50.992;13.788;2023-04-24T13:15:40;1.00;;;0.30;;
24663;SDS011;12791;50.992;13.788;2023-04-24T13:18:07;0.30;;;0.30;;
24663;SDS011;12791;50.992;13.788;2023-04-24T13:20:33;0.40;;;0.40;;
24663;SDS011;12791;50.992;13.788;2023-04-24T13:23:01;1.10;;;0.40;;
24663;SDS011;12791;50.992;13.788;2023-04-24T13:25:30;0.45;;;0.40;;
24663;SDS011;12791;50.992;13.788;2023-04-24T13:28:02;0.93;;;0.40;;
24663;SDS011;12791;50.992;13.788;2023-04-24T13:30:28;1.20;;;0.30;;
24663;SDS011;12791;50.992;13.788;2023-04-24T13:32:56;0.95;;;0.30;;
24663;SDS011;12791;50.992;13.788;2023-04-24T13:35:23;1.08;;;0.30;;
24663;SDS011;12791;50.992;13.788;2023-04-24T13:37:49;1.63;;;0.30;;
24663;SDS011;12791;50.992;13.788;2023-04-24T13:40:16;1.30;;;0.40;;
24663;SDS011;12791;50.992;13.788;2023-04-24T13:42:43;4.22;;;0.40;;
24663;SDS011;12791;50.992;13.788;2023-04-24T13:45:10;0.50;;;0.45;;
24663;SDS011;12791;50.992;13.788;2023-04-24T13:47:36;1.23;;;0.50;;
24663;SDS011;12791;50.992;13.788;2023-04-24T13:50:07;0.40;;;0.40;;
24663;SDS011;12791;50.992;13.788;2023-04-24T13:52:35;1.40;;;0.50;;
24663;SDS011;12791;50.992;13.788;2023-04-24T13:55:05;0.30;;;0.30;;
24663;SDS011;12791;50.992;13.788;2023-04-24T13:57:34;0.97;;;0.50;;
24663;SDS011;12791;50.992;13.788;2023-04-24T14:00:01;0.40;;;0.40;;
24663;SDS011;12791;50.992;13.788;2023-04-24T14:02:28;1.30;;;0.50;;
24663;SDS011;12791;50.992;13.788;2023-04-24T14:04:55;1.27;;;0.40;;
24663;SDS011;12791;50.992;13.788;2023-04-24T14:07:23;2.25;;;0.50;;
24663;SDS011;12791;50.992;13.788;2023-04-24T14:09:49;0.30;;;0.30;;
24663;SDS011;12791;50.992;13.788;2023-04-24T14:12:16;1.05;;;0.50;;
24663;SDS011;12791;50.992;13.788;2023-04-24T14:14:44;0.40;;;0.40;;
24663;SDS011;12791;50.992;13.788;2023-04-24T14:17:11;1.08;;;0.40;;
24663;SDS011;12791;50.992;13.788;2023-04-24T14:19:38;1.08;;;0.40;;
24663;SDS011;12791;50.992;13.788;2023-04-24T14:22:05;0.57;;;0.40;;
24663;SDS011;12791;50.992;13.788;2023-04-24T14:24:33;1.08;;;0.30;;
24663;SDS011;12791;50.992;13.788;2023-04-24T14:26:59;0.43;;;0.43;;
24663;SDS011;12791;50.992;13.788;2023-04-24T14:29:26;1.13;;;0.50;;
24663;SDS011;12791;50.992;13.788;2023-04-24T14:31:52;0.40;;;0.40;;
24663;SDS011;12791;50.992;13.788;2023-04-24T14:34:19;0.40;;;0.40;;
24663;SDS011;12791;50.992;13.788;2023-04-24T14:36:46;0.95;;;0.50;;
24663;SDS011;12791;50.992;13.788;2023-04-24T14:39:12;0.40;;;0.40;;
24663;SDS011;12791;50.992;13.788;2023-04-24T14:41:40;0.45;;;0.30;;